sensor_id;sensor_type;location;lat;lon;timestamp;P1;durP1;ratioP1;P2;durP2;ratioP2
69419;SDS011;56612;52.030;113.524;2022-10-16T00:01:11;7.47;;;0.75;;
69419;SDS011;56612;52.030;113.524;2022-10-16T00:04:19;5.20;;;0.70;;
69419;SDS011;56612;52.030;113.524;2022-10-16T00:07:22;2.60;;;0.57;;
69419;SDS011;56612;52.030;113.524;2022-10-16T00:10:26;3.67;;;0.73;;
69419;SDS011;56612;52.030;113.524;2022-10-16T00:13:29;2.42;;;0.65;;
69419;SDS011;56612;52.030;113.524;2022-10-16T00:16:34;5.45;;;0.80;;
69419;SDS011;56612;52.030;113.524;2022-10-16T00:19:38;4.43;;;0.90;;
69419;SDS011;56612;52.030;113.524;2022-10-16T00:22:41;2.70;;;0.90;;
69419;SDS011;56612;52.030;113.524;2022-10-16T00:25:44;3.55;;;0.85;;
69419;SDS011;56612;52.030;113.524;2022-10-16T00:28:49;3.78;;;0.98;;
69419;SDS011;56612;52.030;113.524;2022-10-16T00:31:54;4.32;;;0.63;;
69419;SDS011;56612;52.030;113.524;2022-10-16T00:34:57;3.43;;;0.83;;
69419;SDS011;56612;52.030;113.524;2022-10-16T00:38:01;4.17;;;1.10;;
69419;SDS011;56612;52.030;113.524;2022-10-16T00:41:05;4.85;;;1.60;;
69419;SDS011;56612;52.030;113.524;2022-10-16T00:47:52;3.95;;;0.90;;
69419;SDS011;56612;52.030;113.524;2022-10-16T00:50:58;4.50;;;1.17;;
69419;SDS011;56612;52.030;113.524;2022-10-16T00:54:02;6.87;;;2.50;;
69419;SDS011;56612;52.030;113.524;2022-10-16T00:57:10;3.58;;;1.20;;
69419;SDS011;56612;52.030;113.524;2022-10-16T01:00:20;8.38;;;1.50;;
69419;SDS011;56612;52.030;113.524;2022-10-16T01:03:33;7.85;;;1.40;;
69419;SDS011;56612;52.030;113.524;2022-10-16T01:10:13;7.13;;;1.37;;
69419;SDS011;56612;52.030;113.524;2022-10-16T01:13:33;7.10;;;1.70;;
69419;SDS011;56612;52.030;113.524;2022-10-16T01:16:46;3.90;;;0.90;;
69419;SDS011;56612;52.030;113.524;2022-10-16T01:20:02;4.47;;;1.02;;
69419;SDS011;56612;52.030;113.524;2022-10-16T01:30:16;4.32;;;0.80;;
69419;SDS011;56612;52.030;113.524;2022-10-16T01:33:24;5.50;;;1.60;;
69419;SDS011;56612;52.030;113.524;2022-10-16T01:36:39;6.20;;;1.73;;
69419;SDS011;56612;52.030;113.524;2022-10-16T01:39:57;3.67;;;1.00;;
69419;SDS011;56612;52.030;113.524;2022-10-16T01:43:06;4.50;;;1.13;;
69419;SDS011;56612;52.030;113.524;2022-10-16T01:46:15;4.95;;;1.08;;
69419;SDS011;56612;52.030;113.524;2022-10-16T01:49:23;5.53;;;1.25;;
69419;SDS011;56612;52.030;113.524;2022-10-16T01:52:28;6.03;;;2.00;;
69419;SDS011;56612;52.030;113.524;2022-10-16T01:55:35;6.43;;;2.00;;
69419;SDS011;56612;52.030;113.524;2022-10-16T01:59:03;4.10;;;0.80;;
69419;SDS011;56612;52.030;113.524;2022-10-16T02:02:09;2.72;;;0.80;;
69419;SDS011;56612;52.030;113.524;2022-10-16T02:05:26;2.42;;;0.80;;
69419;SDS011;56612;52.030;113.524;2022-10-16T02:08:48;2.78;;;0.50;;
69419;SDS011;56612;52.030;113.524;2022-10-16T02:11:54;5.77;;;0.57;;
69419;SDS011;56612;52.030;113.524;2022-10-16T02:15:02;5.73;;;2.53;;
69419;SDS011;56612;52.030;113.524;2022-10-16T02:18:06;3.45;;;0.95;;
69419;SDS011;56612;52.030;113.524;2022-10-16T02:21:22;4.63;;;0.80;;
69419;SDS011;56612;52.030;113.524;2022-10-16T02:24:38;4.00;;;0.98;;
69419;SDS011;56612;52.030;113.524;2022-10-16T02:28:01;4.00;;;0.67;;
69419;SDS011;56612;52.030;113.524;2022-10-16T02:31:16;2.50;;;0.67;;
69419;SDS011;56612;52.030;113.524;2022-10-16T02:34:26;3.25;;;0.60;;
69419;SDS011;56612;52.030;113.524;2022-10-16T02:37:32;3.35;;;0.82;;
69419;SDS011;56612;52.030;113.524;2022-10-16T02:40:36;6.57;;;0.70;;
69419;SDS011;56612;52.030;113.524;2022-10-16T02:43:40;3.60;;;0.80;;
69419;SDS011;56612;52.030;113.524;2022-10-16T02:46:43;3.27;;;0.90;;
69419;SDS011;56612;52.030;113.524;2022-10-16T02:49:47;10.20;;;3.30;;
69419;SDS011;56612;52.030;113.524;2022-10-16T02:52:51;8.15;;;1.90;;
69419;SDS011;56612;52.030;113.524;2022-10-16T02:55:55;6.30;;;1.60;;
69419;SDS011;56612;52.030;113.524;2022-10-16T02:58:58;3.70;;;0.60;;
69419;SDS011;56612;52.030;113.524;2022-10-16T03:02:02;6.73;;;0.80;;
69419;SDS011;56612;52.030;113.524;2022-10-16T03:05:06;5.72;;;1.80;;
69419;SDS011;56612;52.030;113.524;2022-10-16T03:08:09;5.68;;;0.95;;
69419;SDS011;56612;52.030;113.524;2022-10-16T03:11:13;4.18;;;1.20;;
69419;SDS011;56612;52.030;113.524;2022-10-16T03:14:17;4.77;;;1.40;;
69419;SDS011;56612;52.030;113.524;2022-10-16T03:17:21;3.00;;;0.93;;
69419;SDS011;56612;52.030;113.524;2022-10-16T03:20:25;3.42;;;1.10;;
69419;SDS011;56612;52.030;113.524;2022-10-16T03:23:29;3.17;;;0.90;;
69419;SDS011;56612;52.030;113.524;2022-10-16T03:26:36;2.60;;;1.15;;
69419;SDS011;56612;52.030;113.524;2022-10-16T03:29:40;4.20;;;0.87;;
69419;SDS011;56612;52.030;113.524;2022-10-16T03:32:44;4.60;;;0.93;;
69419;SDS011;56612;52.030;113.524;2022-10-16T03:35:51;1.98;;;0.60;;
69419;SDS011;56612;52.030;113.524;2022-10-16T03:38:56;2.45;;;0.80;;
69419;SDS011;56612;52.030;113.524;2022-10-16T03:42:00;4.80;;;0.93;;
69419;SDS011;56612;52.030;113.524;2022-10-16T03:45:03;2.43;;;0.60;;
69419;SDS011;56612;52.030;113.524;2022-10-16T03:48:07;3.63;;;0.77;;
69419;SDS011;56612;52.030;113.524;2022-10-16T03:51:11;3.53;;;0.50;;
69419;SDS011;56612;52.030;113.524;2022-10-16T03:54:15;2.33;;;0.65;;
69419;SDS011;56612;52.030;113.524;2022-10-16T03:57:18;4.53;;;0.90;;
69419;SDS011;56612;52.030;113.524;2022-10-16T04:00:23;3.17;;;0.80;;
69419;SDS011;56612;52.030;113.524;2022-10-16T04:03:27;4.30;;;0.93;;
69419;SDS011;56612;52.030;113.524;2022-10-16T04:06:30;3.38;;;1.02;;
69419;SDS011;56612;52.030;113.524;2022-10-16T04:09:34;7.03;;;1.27;;
69419;SDS011;56612;52.030;113.524;2022-10-16T04:12:37;3.67;;;0.70;;
69419;SDS011;56612;52.030;113.524;2022-10-16T04:15:41;5.20;;;0.87;;
69419;SDS011;56612;52.030;113.524;2022-10-16T04:18:44;5.33;;;0.80;;
69419;SDS011;56612;52.030;113.524;2022-10-16T04:21:47;8.85;;;5.95;;
69419;SDS011;56612;52.030;113.524;2022-10-16T04:24:51;5.30;;;0.90;;
69419;SDS011;56612;52.030;113.524;2022-10-16T04:27:55;9.18;;;1.33;;
69419;SDS011;56612;52.030;113.524;2022-10-16T04:30:59;6.67;;;1.20;;
69419;SDS011;56612;52.030;113.524;2022-10-16T04:34:03;4.60;;;1.07;;
69419;SDS011;56612;52.030;113.524;2022-10-16T04:37:07;4.60;;;1.25;;
69419;SDS011;56612;52.030;113.524;2022-10-16T04:40:11;3.08;;;0.90;;
69419;SDS011;56612;52.030;113.524;2022-10-16T04:43:14;4.82;;;0.80;;
69419;SDS011;56612;52.030;113.524;2022-10-16T04:46:18;4.80;;;1.20;;
69419;SDS011;56612;52.030;113.524;2022-10-16T04:49:22;4.97;;;0.80;;
69419;SDS011;56612;52.030;113.524;2022-10-16T04:52:26;4.57;;;1.10;;
69419;SDS011;56612;52.030;113.524;2022-10-16T04:55:29;4.90;;;0.90;;
69419;SDS011;56612;52.030;113.524;2022-10-16T04:58:33;4.15;;;0.77;;
69419;SDS011;56612;52.030;113.524;2022-10-16T05:01:37;9.27;;;1.20;;
69419;SDS011;56612;52.030;113.524;2022-10-16T05:04:41;4.07;;;0.80;;
69419;SDS011;56612;52.030;113.524;2022-10-16T05:07:46;5.38;;;1.38;;
69419;SDS011;56612;52.030;113.524;2022-10-16T05:10:50;4.25;;;1.50;;
69419;SDS011;56612;52.030;113.524;2022-10-16T05:13:53;3.92;;;1.20;;
69419;SDS011;56612;52.030;113.524;2022-10-16T05:16:56;3.90;;;1.40;;
69419;SDS011;56612;52.030;113.524;2022-10-16T05:19:59;5.60;;;1.30;;
69419;SDS011;56612;52.030;113.524;2022-10-16T05:23:04;6.00;;;1.60;;
69419;SDS011;56612;52.030;113.524;2022-10-16T05:26:07;4.50;;;1.60;;
69419;SDS011;56612;52.030;113.524;2022-10-16T05:29:10;5.47;;;1.27;;
69419;SDS011;56612;52.030;113.524;2022-10-16T05:32:14;3.27;;;0.80;;
69419;SDS011;56612;52.030;113.524;2022-10-16T05:35:19;2.07;;;0.50;;
69419;SDS011;56612;52.030;113.524;2022-10-16T05:38:23;3.08;;;0.70;;
69419;SDS011;56612;52.030;113.524;2022-10-16T05:41:27;4.38;;;1.00;;
69419;SDS011;56612;52.030;113.524;2022-10-16T05:44:31;2.80;;;1.38;;
69419;SDS011;56612;52.030;113.524;2022-10-16T05:47:40;6.07;;;1.60;;
69419;SDS011;56612;52.030;113.524;2022-10-16T05:50:44;3.20;;;1.20;;
69419;SDS011;56612;52.030;113.524;2022-10-16T05:53:48;5.03;;;0.90;;
69419;SDS011;56612;52.030;113.524;2022-10-16T05:56:51;9.15;;;0.70;;
69419;SDS011;56612;52.030;113.524;2022-10-16T05:59:55;4.80;;;0.70;;
69419;SDS011;56612;52.030;113.524;2022-10-16T06:02:59;6.93;;;1.20;;
69419;SDS011;56612;52.030;113.524;2022-10-16T06:06:12;3.20;;;1.07;;
69419;SDS011;56612;52.030;113.524;2022-10-16T06:09:18;3.38;;;0.80;;
69419;SDS011;56612;52.030;113.524;2022-10-16T06:12:21;3.75;;;0.65;;
69419;SDS011;56612;52.030;113.524;2022-10-16T06:15:25;4.05;;;0.50;;
69419;SDS011;56612;52.030;113.524;2022-10-16T06:18:29;6.37;;;1.37;;
69419;SDS011;56612;52.030;113.524;2022-10-16T06:21:33;5.13;;;1.50;;
69419;SDS011;56612;52.030;113.524;2022-10-16T06:24:37;3.45;;;1.30;;
69419;SDS011;56612;52.030;113.524;2022-10-16T06:27:40;2.40;;;0.90;;
69419;SDS011;56612;52.030;113.524;2022-10-16T06:30:45;6.68;;;2.50;;
69419;SDS011;56612;52.030;113.524;2022-10-16T06:33:51;5.20;;;1.50;;
69419;SDS011;56612;52.030;113.524;2022-10-16T06:36:54;3.57;;;1.23;;
69419;SDS011;56612;52.030;113.524;2022-10-16T06:39:58;2.75;;;0.82;;
69419;SDS011;56612;52.030;113.524;2022-10-16T06:43:02;3.40;;;0.88;;
69419;SDS011;56612;52.030;113.524;2022-10-16T06:46:06;4.78;;;1.73;;
69419;SDS011;56612;52.030;113.524;2022-10-16T06:49:13;3.93;;;0.83;;
69419;SDS011;56612;52.030;113.524;2022-10-16T06:52:23;3.10;;;0.93;;
69419;SDS011;56612;52.030;113.524;2022-10-16T06:55:27;3.88;;;1.35;;
69419;SDS011;56612;52.030;113.524;2022-10-16T06:58:31;3.85;;;1.20;;
69419;SDS011;56612;52.030;113.524;2022-10-16T07:01:35;3.55;;;1.17;;
69419;SDS011;56612;52.030;113.524;2022-10-16T07:04:38;2.93;;;1.20;;
69419;SDS011;56612;52.030;113.524;2022-10-16T07:07:42;3.17;;;1.07;;
69419;SDS011;56612;52.030;113.524;2022-10-16T07:10:45;4.18;;;0.90;;
69419;SDS011;56612;52.030;113.524;2022-10-16T07:13:49;3.65;;;1.10;;
69419;SDS011;56612;52.030;113.524;2022-10-16T07:16:57;4.13;;;1.33;;
69419;SDS011;56612;52.030;113.524;2022-10-16T07:20:01;3.07;;;1.23;;
69419;SDS011;56612;52.030;113.524;2022-10-16T07:23:05;3.40;;;1.50;;
69419;SDS011;56612;52.030;113.524;2022-10-16T07:26:09;4.60;;;1.20;;
69419;SDS011;56612;52.030;113.524;2022-10-16T07:29:14;5.05;;;0.98;;
69419;SDS011;56612;52.030;113.524;2022-10-16T07:32:19;5.40;;;1.30;;
69419;SDS011;56612;52.030;113.524;2022-10-16T07:35:23;3.80;;;1.33;;
69419;SDS011;56612;52.030;113.524;2022-10-16T07:38:27;3.57;;;1.70;;
69419;SDS011;56612;52.030;113.524;2022-10-16T07:41:31;3.25;;;1.40;;
69419;SDS011;56612;52.030;113.524;2022-10-16T07:44:35;7.25;;;1.45;;
69419;SDS011;56612;52.030;113.524;2022-10-16T07:47:39;8.52;;;1.60;;
69419;SDS011;56612;52.030;113.524;2022-10-16T07:50:44;4.33;;;1.10;;
69419;SDS011;56612;52.030;113.524;2022-10-16T07:53:49;6.37;;;1.33;;
69419;SDS011;56612;52.030;113.524;2022-10-16T07:56:53;5.47;;;3.08;;
69419;SDS011;56612;52.030;113.524;2022-10-16T07:59:57;6.22;;;2.97;;
69419;SDS011;56612;52.030;113.524;2022-10-16T08:03:12;4.65;;;1.77;;
69419;SDS011;56612;52.030;113.524;2022-10-16T08:06:16;4.13;;;1.60;;
69419;SDS011;56612;52.030;113.524;2022-10-16T08:09:26;10.27;;;1.77;;
69419;SDS011;56612;52.030;113.524;2022-10-16T08:12:30;8.30;;;3.25;;
69419;SDS011;56612;52.030;113.524;2022-10-16T08:15:38;9.23;;;2.92;;
69419;SDS011;56612;52.030;113.524;2022-10-16T08:18:41;3.33;;;1.45;;
69419;SDS011;56612;52.030;113.524;2022-10-16T08:21:48;6.20;;;2.00;;
69419;SDS011;56612;52.030;113.524;2022-10-16T08:24:55;6.20;;;1.97;;
69419;SDS011;56612;52.030;113.524;2022-10-16T08:27:59;7.53;;;2.55;;
69419;SDS011;56612;52.030;113.524;2022-10-16T08:31:14;6.32;;;2.10;;
69419;SDS011;56612;52.030;113.524;2022-10-16T08:34:23;6.53;;;2.60;;
69419;SDS011;56612;52.030;113.524;2022-10-16T08:37:30;6.57;;;2.73;;
69419;SDS011;56612;52.030;113.524;2022-10-16T08:40:37;8.77;;;3.73;;
69419;SDS011;56612;52.030;113.524;2022-10-16T08:50:55;7.53;;;2.90;;
69419;SDS011;56612;52.030;113.524;2022-10-16T08:54:04;9.87;;;4.00;;
69419;SDS011;56612;52.030;113.524;2022-10-16T08:57:31;14.67;;;3.80;;
69419;SDS011;56612;52.030;113.524;2022-10-16T09:00:34;7.78;;;3.22;;
69419;SDS011;56612;52.030;113.524;2022-10-16T09:10:31;9.53;;;4.80;;
69419;SDS011;56612;52.030;113.524;2022-10-16T09:13:50;5.27;;;2.43;;
69419;SDS011;56612;52.030;113.524;2022-10-16T09:17:18;6.95;;;2.63;;
69419;SDS011;56612;52.030;113.524;2022-10-16T09:23:38;16.33;;;5.68;;
69419;SDS011;56612;52.030;113.524;2022-10-16T09:26:42;16.93;;;6.40;;
69419;SDS011;56612;52.030;113.524;2022-10-16T09:29:47;13.50;;;6.80;;
69419;SDS011;56612;52.030;113.524;2022-10-16T09:32:51;24.52;;;6.40;;
69419;SDS011;56612;52.030;113.524;2022-10-16T09:35:57;18.67;;;6.35;;
69419;SDS011;56612;52.030;113.524;2022-10-16T09:39:02;12.90;;;4.38;;
69419;SDS011;56612;52.030;113.524;2022-10-16T09:42:10;20.87;;;5.63;;
69419;SDS011;56612;52.030;113.524;2022-10-16T09:45:21;22.17;;;7.10;;
69419;SDS011;56612;52.030;113.524;2022-10-16T09:48:47;19.65;;;8.55;;
69419;SDS011;56612;52.030;113.524;2022-10-16T09:52:12;16.65;;;5.28;;
69419;SDS011;56612;52.030;113.524;2022-10-16T09:55:18;15.98;;;4.95;;
69419;SDS011;56612;52.030;113.524;2022-10-16T09:58:22;17.52;;;6.43;;
69419;SDS011;56612;52.030;113.524;2022-10-16T10:01:39;34.23;;;11.97;;
69419;SDS011;56612;52.030;113.524;2022-10-16T10:04:52;62.13;;;19.85;;
69419;SDS011;56612;52.030;113.524;2022-10-16T10:07:58;40.58;;;14.25;;
69419;SDS011;56612;52.030;113.524;2022-10-16T10:11:03;31.90;;;11.02;;
69419;SDS011;56612;52.030;113.524;2022-10-16T10:17:23;36.40;;;13.93;;
69419;SDS011;56612;52.030;113.524;2022-10-16T10:20:29;24.05;;;9.20;;
69419;SDS011;56612;52.030;113.524;2022-10-16T10:23:38;19.65;;;7.55;;
69419;SDS011;56612;52.030;113.524;2022-10-16T10:26:47;144.45;;;55.70;;
69419;SDS011;56612;52.030;113.524;2022-10-16T10:36:28;45.10;;;14.45;;
69419;SDS011;56612;52.030;113.524;2022-10-16T10:39:43;52.28;;;19.45;;
69419;SDS011;56612;52.030;113.524;2022-10-16T10:42:59;39.25;;;16.67;;
69419;SDS011;56612;52.030;113.524;2022-10-16T10:47:16;40.53;;;16.27;;
69419;SDS011;56612;52.030;113.524;2022-10-16T11:00:42;47.50;;;16.33;;
69419;SDS011;56612;52.030;113.524;2022-10-16T11:07:20;37.33;;;13.17;;
69419;SDS011;56612;52.030;113.524;2022-10-16T11:10:42;26.98;;;11.02;;
69419;SDS011;56612;52.030;113.524;2022-10-16T11:20:14;22.40;;;5.50;;
69419;SDS011;56612;52.030;113.524;2022-10-16T11:23:28;18.00;;;5.00;;
69419;SDS011;56612;52.030;113.524;2022-10-16T11:26:37;9.57;;;3.15;;
69419;SDS011;56612;52.030;113.524;2022-10-16T11:29:56;14.68;;;4.00;;
69419;SDS011;56612;52.030;113.524;2022-10-16T11:39:20;14.10;;;5.13;;
69419;SDS011;56612;52.030;113.524;2022-10-16T11:42:40;11.13;;;3.80;;
69419;SDS011;56612;52.030;113.524;2022-10-16T11:45:49;6.30;;;1.98;;
69419;SDS011;56612;52.030;113.524;2022-10-16T11:48:59;6.15;;;1.85;;
69419;SDS011;56612;52.030;113.524;2022-10-16T11:55:54;8.47;;;1.90;;
69419;SDS011;56612;52.030;113.524;2022-10-16T11:59:31;8.32;;;1.98;;
69419;SDS011;56612;52.030;113.524;2022-10-16T12:02:50;6.43;;;2.08;;
69419;SDS011;56612;52.030;113.524;2022-10-16T12:06:05;10.70;;;3.15;;
69419;SDS011;56612;52.030;113.524;2022-10-16T12:09:30;8.50;;;3.10;;
69419;SDS011;56612;52.030;113.524;2022-10-16T12:12:40;11.40;;;2.30;;
69419;SDS011;56612;52.030;113.524;2022-10-16T12:15:44;5.70;;;2.47;;
69419;SDS011;56612;52.030;113.524;2022-10-16T12:19:12;4.90;;;1.60;;
69419;SDS011;56612;52.030;113.524;2022-10-16T12:22:18;6.13;;;1.75;;
69419;SDS011;56612;52.030;113.524;2022-10-16T12:25:25;5.10;;;1.70;;
69419;SDS011;56612;52.030;113.524;2022-10-16T12:28:31;10.90;;;2.10;;
69419;SDS011;56612;52.030;113.524;2022-10-16T12:31:37;16.00;;;4.25;;
69419;SDS011;56612;52.030;113.524;2022-10-16T12:35:03;24.75;;;6.00;;
69419;SDS011;56612;52.030;113.524;2022-10-16T12:38:15;23.52;;;6.50;;
69419;SDS011;56612;52.030;113.524;2022-10-16T12:41:29;13.97;;;4.00;;
69419;SDS011;56612;52.030;113.524;2022-10-16T12:44:37;7.77;;;2.90;;
69419;SDS011;56612;52.030;113.524;2022-10-16T12:47:48;10.32;;;2.83;;
69419;SDS011;56612;52.030;113.524;2022-10-16T12:50:54;10.98;;;3.33;;
69419;SDS011;56612;52.030;113.524;2022-10-16T13:00:57;6.53;;;2.00;;
69419;SDS011;56612;52.030;113.524;2022-10-16T13:11:17;8.75;;;2.58;;
69419;SDS011;56612;52.030;113.524;2022-10-16T13:15:01;4.87;;;1.17;;
69419;SDS011;56612;52.030;113.524;2022-10-16T13:18:34;6.00;;;1.73;;
69419;SDS011;56612;52.030;113.524;2022-10-16T13:28:34;8.50;;;2.08;;
69419;SDS011;56612;52.030;113.524;2022-10-16T13:31:41;8.57;;;2.00;;
69419;SDS011;56612;52.030;113.524;2022-10-16T13:34:48;7.27;;;2.30;;
69419;SDS011;56612;52.030;113.524;2022-10-16T13:38:02;16.35;;;2.60;;
69419;SDS011;56612;52.030;113.524;2022-10-16T13:41:16;5.00;;;1.63;;
69419;SDS011;56612;52.030;113.524;2022-10-16T13:44:21;7.22;;;1.58;;
69419;SDS011;56612;52.030;113.524;2022-10-16T13:47:26;6.57;;;1.67;;
69419;SDS011;56612;52.030;113.524;2022-10-16T13:50:32;6.53;;;1.80;;
69419;SDS011;56612;52.030;113.524;2022-10-16T13:53:36;6.70;;;1.90;;
69419;SDS011;56612;52.030;113.524;2022-10-16T13:56:40;8.05;;;2.10;;
69419;SDS011;56612;52.030;113.524;2022-10-16T13:59:43;8.02;;;1.70;;
69419;SDS011;56612;52.030;113.524;2022-10-16T14:02:50;8.20;;;1.87;;
69419;SDS011;56612;52.030;113.524;2022-10-16T14:05:59;4.83;;;1.20;;
69419;SDS011;56612;52.030;113.524;2022-10-16T14:12:11;7.22;;;1.20;;
69419;SDS011;56612;52.030;113.524;2022-10-16T14:15:16;7.30;;;1.92;;
69419;SDS011;56612;52.030;113.524;2022-10-16T14:18:23;8.93;;;2.17;;
69419;SDS011;56612;52.030;113.524;2022-10-16T14:21:37;7.00;;;2.27;;
69419;SDS011;56612;52.030;113.524;2022-10-16T14:24:43;8.80;;;2.97;;
69419;SDS011;56612;52.030;113.524;2022-10-16T14:28:01;13.35;;;2.63;;
69419;SDS011;56612;52.030;113.524;2022-10-16T14:31:30;7.35;;;2.20;;
69419;SDS011;56612;52.030;113.524;2022-10-16T14:34:37;13.13;;;2.50;;
69419;SDS011;56612;52.030;113.524;2022-10-16T14:37:43;9.00;;;1.70;;
69419;SDS011;56612;52.030;113.524;2022-10-16T14:40:47;10.35;;;1.70;;
69419;SDS011;56612;52.030;113.524;2022-10-16T14:43:53;6.85;;;1.60;;
69419;SDS011;56612;52.030;113.524;2022-10-16T14:47:06;10.13;;;1.77;;
69419;SDS011;56612;52.030;113.524;2022-10-16T14:50:13;6.63;;;1.53;;
69419;SDS011;56612;52.030;113.524;2022-10-16T14:53:17;8.73;;;1.60;;
69419;SDS011;56612;52.030;113.524;2022-10-16T14:56:24;7.03;;;1.80;;
69419;SDS011;56612;52.030;113.524;2022-10-16T14:59:35;5.93;;;1.48;;
69419;SDS011;56612;52.030;113.524;2022-10-16T15:02:42;10.27;;;1.75;;
69419;SDS011;56612;52.030;113.524;2022-10-16T15:05:46;7.23;;;1.50;;
69419;SDS011;56612;52.030;113.524;2022-10-16T15:08:50;6.37;;;1.83;;
69419;SDS011;56612;52.030;113.524;2022-10-16T15:11:53;7.32;;;2.08;;
69419;SDS011;56612;52.030;113.524;2022-10-16T15:14:57;8.82;;;2.47;;
69419;SDS011;56612;52.030;113.524;2022-10-16T15:18:01;13.35;;;3.80;;
69419;SDS011;56612;52.030;113.524;2022-10-16T15:21:06;10.80;;;2.90;;
69419;SDS011;56612;52.030;113.524;2022-10-16T15:24:11;8.97;;;2.90;;
69419;SDS011;56612;52.030;113.524;2022-10-16T15:27:22;9.27;;;2.00;;
69419;SDS011;56612;52.030;113.524;2022-10-16T15:30:26;6.38;;;1.45;;
69419;SDS011;56612;52.030;113.524;2022-10-16T15:33:30;7.00;;;1.10;;
69419;SDS011;56612;52.030;113.524;2022-10-16T15:36:41;4.60;;;1.00;;
69419;SDS011;56612;52.030;113.524;2022-10-16T15:39:44;5.47;;;1.20;;
69419;SDS011;56612;52.030;113.524;2022-10-16T15:42:48;3.75;;;1.20;;
69419;SDS011;56612;52.030;113.524;2022-10-16T15:46:02;7.93;;;1.30;;
69419;SDS011;56612;52.030;113.524;2022-10-16T15:49:08;3.50;;;0.93;;
69419;SDS011;56612;52.030;113.524;2022-10-16T15:52:12;4.57;;;0.97;;
69419;SDS011;56612;52.030;113.524;2022-10-16T15:55:16;4.77;;;1.20;;
69419;SDS011;56612;52.030;113.524;2022-10-16T15:58:21;5.22;;;1.35;;
69419;SDS011;56612;52.030;113.524;2022-10-16T16:01:26;7.00;;;2.08;;
69419;SDS011;56612;52.030;113.524;2022-10-16T16:04:31;5.63;;;1.33;;
69419;SDS011;56612;52.030;113.524;2022-10-16T16:07:50;4.70;;;1.30;;
69419;SDS011;56612;52.030;113.524;2022-10-16T16:11:12;5.90;;;1.10;;
69419;SDS011;56612;52.030;113.524;2022-10-16T16:14:17;5.40;;;1.58;;
69419;SDS011;56612;52.030;113.524;2022-10-16T16:17:21;4.45;;;1.30;;
69419;SDS011;56612;52.030;113.524;2022-10-16T16:20:25;6.57;;;1.67;;
69419;SDS011;56612;52.030;113.524;2022-10-16T16:23:29;6.80;;;2.10;;
69419;SDS011;56612;52.030;113.524;2022-10-16T16:26:33;8.23;;;1.57;;
69419;SDS011;56612;52.030;113.524;2022-10-16T16:29:39;7.30;;;1.40;;
69419;SDS011;56612;52.030;113.524;2022-10-16T16:32:42;4.38;;;1.10;;
69419;SDS011;56612;52.030;113.524;2022-10-16T16:35:46;8.55;;;1.63;;
69419;SDS011;56612;52.030;113.524;2022-10-16T16:38:49;6.87;;;1.80;;
69419;SDS011;56612;52.030;113.524;2022-10-16T16:41:54;5.23;;;1.60;;
69419;SDS011;56612;52.030;113.524;2022-10-16T16:44:59;4.75;;;1.10;;
69419;SDS011;56612;52.030;113.524;2022-10-16T16:48:02;6.05;;;1.00;;
69419;SDS011;56612;52.030;113.524;2022-10-16T16:51:09;5.00;;;1.10;;
69419;SDS011;56612;52.030;113.524;2022-10-16T16:54:19;4.57;;;1.40;;
69419;SDS011;56612;52.030;113.524;2022-10-16T16:57:23;7.93;;;1.50;;
69419;SDS011;56612;52.030;113.524;2022-10-16T17:00:27;7.03;;;1.48;;
69419;SDS011;56612;52.030;113.524;2022-10-16T17:03:32;9.23;;;1.50;;
69419;SDS011;56612;52.030;113.524;2022-10-16T17:06:37;5.40;;;1.10;;
69419;SDS011;56612;52.030;113.524;2022-10-16T17:09:41;6.13;;;1.43;;
69419;SDS011;56612;52.030;113.524;2022-10-16T17:12:45;6.00;;;1.20;;
69419;SDS011;56612;52.030;113.524;2022-10-16T17:15:49;4.35;;;0.90;;
69419;SDS011;56612;52.030;113.524;2022-10-16T17:18:53;5.97;;;1.25;;
69419;SDS011;56612;52.030;113.524;2022-10-16T17:21:57;6.03;;;1.10;;
69419;SDS011;56612;52.030;113.524;2022-10-16T17:25:00;5.70;;;1.43;;
69419;SDS011;56612;52.030;113.524;2022-10-16T17:28:07;7.73;;;1.47;;
69419;SDS011;56612;52.030;113.524;2022-10-16T17:31:14;4.53;;;1.15;;
69419;SDS011;56612;52.030;113.524;2022-10-16T17:34:20;5.43;;;1.83;;
69419;SDS011;56612;52.030;113.524;2022-10-16T17:37:23;8.20;;;1.42;;
69419;SDS011;56612;52.030;113.524;2022-10-16T17:40:27;8.30;;;1.77;;
69419;SDS011;56612;52.030;113.524;2022-10-16T17:43:30;9.43;;;1.60;;
69419;SDS011;56612;52.030;113.524;2022-10-16T17:46:34;8.05;;;1.50;;
69419;SDS011;56612;52.030;113.524;2022-10-16T17:49:42;7.90;;;1.52;;
69419;SDS011;56612;52.030;113.524;2022-10-16T17:52:46;7.50;;;1.55;;
69419;SDS011;56612;52.030;113.524;2022-10-16T17:55:49;7.67;;;1.60;;
69419;SDS011;56612;52.030;113.524;2022-10-16T17:58:58;8.77;;;1.73;;
69419;SDS011;56612;52.030;113.524;2022-10-16T18:02:03;5.60;;;1.38;;
69419;SDS011;56612;52.030;113.524;2022-10-16T18:05:07;5.25;;;1.50;;
69419;SDS011;56612;52.030;113.524;2022-10-16T18:08:13;4.72;;;1.30;;
69419;SDS011;56612;52.030;113.524;2022-10-16T18:11:18;3.50;;;1.00;;
69419;SDS011;56612;52.030;113.524;2022-10-16T18:14:22;4.17;;;1.07;;
69419;SDS011;56612;52.030;113.524;2022-10-16T18:17:26;5.18;;;1.10;;
69419;SDS011;56612;52.030;113.524;2022-10-16T18:20:31;5.35;;;1.17;;
69419;SDS011;56612;52.030;113.524;2022-10-16T18:23:35;4.40;;;1.27;;
69419;SDS011;56612;52.030;113.524;2022-10-16T18:26:39;4.63;;;1.07;;
69419;SDS011;56612;52.030;113.524;2022-10-16T18:29:42;4.00;;;1.10;;
69419;SDS011;56612;52.030;113.524;2022-10-16T18:32:45;3.85;;;0.93;;
69419;SDS011;56612;52.030;113.524;2022-10-16T18:35:49;3.60;;;0.88;;
69419;SDS011;56612;52.030;113.524;2022-10-16T18:38:52;4.55;;;1.00;;
69419;SDS011;56612;52.030;113.524;2022-10-16T18:41:56;3.47;;;0.80;;
69419;SDS011;56612;52.030;113.524;2022-10-16T18:45:01;3.95;;;0.77;;
69419;SDS011;56612;52.030;113.524;2022-10-16T18:48:05;4.25;;;1.05;;
69419;SDS011;56612;52.030;113.524;2022-10-16T18:51:14;4.78;;;0.90;;
69419;SDS011;56612;52.030;113.524;2022-10-16T18:54:21;4.43;;;1.10;;
69419;SDS011;56612;52.030;113.524;2022-10-16T18:57:28;4.27;;;1.13;;
69419;SDS011;56612;52.030;113.524;2022-10-16T19:00:32;4.63;;;1.00;;
69419;SDS011;56612;52.030;113.524;2022-10-16T19:03:37;4.25;;;1.20;;
69419;SDS011;56612;52.030;113.524;2022-10-16T19:06:44;4.50;;;1.35;;
69419;SDS011;56612;52.030;113.524;2022-10-16T19:09:50;7.25;;;1.20;;
69419;SDS011;56612;52.030;113.524;2022-10-16T19:12:54;3.40;;;0.87;;
69419;SDS011;56612;52.030;113.524;2022-10-16T19:15:58;4.22;;;0.90;;
69419;SDS011;56612;52.030;113.524;2022-10-16T19:19:21;3.55;;;0.85;;
69419;SDS011;56612;52.030;113.524;2022-10-16T19:22:25;3.22;;;0.65;;
69419;SDS011;56612;52.030;113.524;2022-10-16T19:25:50;3.95;;;0.90;;
69419;SDS011;56612;52.030;113.524;2022-10-16T19:28:53;4.73;;;0.90;;
69419;SDS011;56612;52.030;113.524;2022-10-16T19:32:00;4.87;;;1.00;;
69419;SDS011;56612;52.030;113.524;2022-10-16T19:35:08;3.65;;;0.60;;
69419;SDS011;56612;52.030;113.524;2022-10-16T19:38:11;2.97;;;0.77;;
69419;SDS011;56612;52.030;113.524;2022-10-16T19:41:16;2.58;;;0.60;;
69419;SDS011;56612;52.030;113.524;2022-10-16T19:44:21;2.30;;;0.60;;
69419;SDS011;56612;52.030;113.524;2022-10-16T19:47:25;2.53;;;0.70;;